Station: Tasman Island  

  Atmospheric Gas Attenuation - ITU Rec 676-11   ----------------- dB/100km -----------------
Date Time Temp RH % AH g/m3 Dew Point Wind Direction Speed kph Gust kph Barometer mB Rainfall Since 9am 24GHz 47GHz 76GHz 122GHz 134GHz 241GHz
07/05 14:30 7 68 5.27 1.5 13 41 1010 2.6 12.7 22.3 29.5 77.0 62.0 210.1
07/05 14:20 7.1 69 5.38 1.8 6 15 1010.1 2.6 13.0 22.5 29.9 78.0 63.3 214.8
07/05 14:10 7 69 5.35 1.7 26 35 1010.2 2.6 12.9 22.5 29.8 77.8 63.1 213.7
07/05 14:00 7.1 68 5.31 1.6 15 41 1010.3 2.6 12.8 22.4 29.7 77.3 62.5 211.7
07/05 13:50 7 67 5.19 1.3 17 37 1010.4 2.6 12.6 22.2 29.2 76.2 61.0 206.6
07/05 13:40 7.1 73 5.7 2.6 13 24 1010.4 2.6 13.7 23.0 31.2 81.4 67.5 229.2
07/05 13:30 7 73 5.66 2.5 9 28 1010.7 2.6 13.6 23.0 31.1 81.1 67.0 227.7
07/05 13:20 6.9 70 5.39 1.8 17 32 1010.7 2.6 13.0 22.6 30.0 78.4 63.7 215.9
07/05 13:10 7 71 5.5 2.1 13 24 1010.4 2.6 13.2 22.7 30.4 79.4 65.0 220.5
07/05 13:00 6.9 73 5.62 2.4 11 44 1010.8 2.6 13.5 22.9 30.9 80.8 66.6 226.2
07/05 12:50 6.9 74 5.7 2.6 11 30 1010.9 2.6 13.7 23.1 31.3 81.6 67.7 229.9
07/05 12:40 6.9 72 5.55 2.2 13 26 1011 2.6 13.3 22.8 30.7 80.1 65.7 223.1
07/05 12:30 6.9 74 5.7 2.6 9 26 1011.1 2.6 13.7 23.1 31.3 81.6 67.7 229.9
07/05 12:20 6.8 78 5.97 3.2 22 33 1011.3 2.6 14.2 23.5 32.4 84.6 71.3 242.6
07/05 12:10 6.7 79 6.01 3.3 7 17 1011.5 2.6 14.3 23.6 32.6 85.2 71.9 244.8
07/05 12:00 6.4 84 6.26 3.9 9 28 1011.5 2.6 14.9 24.1 33.7 88.2 75.5 257.3
07/05 11:50 5.8 86 6.16 3.6 17 39 1011.7 2.6 14.7 24.1 33.6 87.8 74.8 254.6
07/05 11:40 6.7 82 6.23 3.8 13 35 1011.4 2.6 14.8 24.0 33.5 87.5 74.8 254.9
07/05 11:30 6.5 84 6.3 4 17 48 1011.6 2.6 15.0 24.1 33.8 88.5 76.0 258.9
07/05 11:20 4.8 87 5.84 2.8 19 32 1011.9 2.6 14.0 23.9 32.7 85.4 71.4 242.8
07/05 11:10 6.9 78 6.01 3.3 17 28 1011.7 0.6 14.3 23.6 32.5 85.0 71.7 244.2
07/05 11:00 6.8 81 6.2 3.8 11 37 1011.8 0.2 14.7 23.9 33.3 87.1 74.3 253.3
07/05 10:50 7.2 78 6.13 3.6 9 19 1011.9 0.2 14.6 23.7 32.9 85.9 73.1 248.8
07/05 10:40 7.6 76 6.13 3.6 9 20 1011.8 0.2 14.6 23.6 32.7 85.5 72.7 247.5
07/05 10:30 7.3 74 5.85 3 15 39 1011.4 0.2 14.0 23.2 31.7 82.8 69.3 235.6
07/05 10:20 7.7 74 6 3.3 13 22 1011.6 0.2 14.3 23.3 32.1 84.0 70.9 241.2
07/05 10:10 8.4 58 4.92 0.6 24 52 1011.5 0 11.9 21.5 27.8 72.3 56.7 191.6
07/05 10:00 7.5 61 4.88 0.5 35 61 1011.6 0 11.9 21.7 27.9 72.7 56.9 192.0
07/05 09:50 7.3 71 5.61 2.4 15 28 1011.6 0 13.5 22.8 30.8 80.3 66.2 224.8
07/05 09:40 7.4 66 5.25 1.4 26 39 1011.5 0 12.7 22.2 29.4 76.5 61.5 208.5
07/05 09:30 8.1 55 4.58 -0.4 41 61 1011.7 0 11.2 21.1 26.6 69.2 52.8 177.7
07/05 09:20 8.1 53 4.41 -0.9 56 70 1011.5 0 10.9 20.8 26.0 67.5 50.7 170.5
07/05 09:10 8 52 4.3 -1.3 41 56 1011.6 0 10.6 20.7 25.6 66.6 49.5 166.1
07/05 09:00 7.9 61 5.01 0.9 37 61 1011.5 0 12.2 21.8 28.3 73.6 58.2 196.7
07/05 08:50 7.6 72 5.8 3 13 28 1011.6 17.2 13.9 23.1 31.4 82.0 68.4 232.5
07/05 08:40 7.8 60 4.9 0.5 39 54 1011.3 17.2 11.9 21.6 27.9 72.6 56.9 192.1
07/05 08:30 8 64 5.29 1.6 35 74 1011.3 17.2 12.7 22.2 29.3 76.3 61.6 208.6
07/05 08:20 7.7 60 4.87 0.4 44 56 1011.1 17.2 11.9 21.6 27.8 72.4 56.6 191.0
07/05 08:10 7.8 61 4.98 0.7 37 54 1011 17.2 12.1 21.7 28.2 73.4 57.8 195.5
07/05 08:00 7.8 68 5.55 2.3 24 56 1010.8 17.2 13.3 22.6 30.3 79.1 65.0 220.6
07/05 07:50 7.7 66 5.35 1.7 41 57 1010.7 17.2 12.9 22.3 29.6 77.2 62.5 211.9
07/05 07:40 7.4 66 5.25 1.4 39 63 1010.4 17.2 12.7 22.2 29.3 76.4 61.5 208.3
07/05 07:30 7.4 76 6.05 3.5 37 63 1010.5 17.2 14.4 23.5 32.4 84.7 71.7 244.2
07/05 07:20 6.8 80 6.12 3.7 33 48 1010.1 17.2 14.6 23.7 32.9 86.1 73.2 249.2
07/05 07:10 6.9 67 5.16 1.2 32 54 1010.1 17.2 12.5 22.2 29.1 76.0 60.7 205.5
07/05 07:00 6.8 70 5.36 1.7 37 56 1010 17.2 12.9 22.5 29.9 78.1 63.3 214.7
07/05 06:50 6.3 76 5.63 2.5 37 50 1009.8 17.2 13.5 23.1 31.2 81.4 67.2 228.2
07/05 06:40 6.2 83 6.11 3.5 35 56 1009.6 17.2 14.6 23.8 33.1 86.6 73.6 250.6
07/05 06:30 6.5 92 6.9 5.3 22 39 1009.7 17.2 16.3 25.1 36.2 94.9 83.9 286.8
07/05 06:20 6.4 89 6.64 4.7 19 26 1009.7 17.2 15.7 24.7 35.2 92.1 80.5 274.8
07/05 06:10 6.5 86 6.45 4.3 13 37 1009.4 17.2 15.3 24.3 34.4 89.9 77.8 265.4
07/05 06:00 6.8 77 5.89 3.1 28 56 1009.2 15.8 14.1 23.3 32.0 83.6 70.1 238.5
07/05 05:50 6.5 75 5.63 2.5 37 56 1009 15.8 13.5 23.0 31.1 81.1 67.0 227.5
07/05 05:40 6.2 79 5.81 2.8 35 56 1008.9 15.8 13.9 23.3 31.9 83.3 69.6 236.6
07/05 05:30 5 88 5.98 3.2 43 70 1009 15.8 14.3 23.9 33.1 86.5 72.9 248.2
07/05 05:20 5.8 87 6.24 3.8 46 63 1008.8 15.6 14.9 24.1 33.8 88.4 75.6 257.8
07/05 05:10 6.5 82 6.15 3.6 37 44 1008.7 15.4 14.6 23.8 33.1 86.6 73.8 251.3
07/05 05:00 6.5 83 6.23 3.8 30 50 1008.7 15.4 14.8 23.9 33.4 87.5 74.8 255.0
07/05 04:50 6.3 84 6.22 3.8 32 41 1008.5 15.4 14.8 24.0 33.5 87.6 74.9 255.1
07/05 04:40 5.8 90 6.45 4.3 37 50 1008.5 15.4 15.3 24.5 34.6 90.6 78.5 267.6
07/05 04:30 5.5 94 6.61 4.6 19 44 1008.7 15.4 15.7 24.8 35.4 92.8 81.0 276.3
07/05 04:20 5.5 92 6.47 4.3 20 46 1008.3 14.4 15.4 24.6 34.8 91.2 79.0 269.5
07/05 04:10 5.9 89 6.42 4.2 11 20 1007.8 12.6 15.3 24.4 34.4 90.1 77.9 265.7
07/05 04:00 5.6 86 6.08 3.4 22 43 1008.3 11.4 14.5 23.9 33.2 86.8 73.7 250.8
07/05 03:50 5.6 90 6.37 4.1 30 41 1008.4 11.2 15.2 24.4 34.4 90.0 77.6 264.5
07/05 03:40 5.6 89 6.3 3.9 17 30 1008.2 10.8 15.0 24.3 34.1 89.2 76.6 261.1
07/05 03:30 5.6 93 6.58 4.6 20 41 1008.2 10.4 15.6 24.7 35.2 92.3 80.4 274.4
07/05 03:20 5.5 93 6.54 4.4 11 19 1008.3 10 15.5 24.7 35.1 91.9 80.0 272.9
07/05 03:10 5.6 93 6.58 4.5 11 20 1008.2 9.8 15.6 24.7 35.2 92.3 80.4 274.4
07/05 03:00 5.7 90 6.41 4.2 26 50 1008.4 9.6 15.2 24.4 34.5 90.3 78.0 266.0
07/05 02:50 5.3 87 6.03 3.4 30 52 1008.1 9.4 14.4 23.9 33.1 86.6 73.3 249.4
07/05 02:40 6 87 6.32 4 37 54 1007.8 9 15.0 24.2 34.0 88.9 76.5 260.6
07/05 02:30 6.2 87 6.4 4.2 15 26 1007.9 8.8 15.2 24.2 34.2 89.6 77.3 263.7
07/05 02:20 6 88 6.39 4.1 17 37 1007.9 8.8 15.2 24.3 34.3 89.7 77.4 263.9
07/05 02:10 5.8 90 6.45 4.3 19 24 1007.9 8.8 15.3 24.4 34.6 90.6 78.4 267.5
07/05 02:00 5.8 91 6.52 4.4 19 39 1007.9 8.6 15.5 24.6 34.9 91.3 79.4 270.8
07/05 01:50 19 30 1007.8 8.6
07/05 01:40 6 92 6.68 4.8 19 30 1007.7 8.6 15.8 24.8 35.4 92.8 81.3 277.6
07/05 01:30 6 92 6.68 4.8 22 56 1007.7 8.6 15.8 24.8 35.4 92.8 81.3 277.6
07/05 01:20 6.3 89 6.59 4.7 20 44 1007.5 8.4 15.6 24.5 34.9 91.5 79.8 272.3
07/05 01:10 6.5 89 6.68 4.9 11 19 1007.7 8.2 15.8 24.6 35.2 92.2 80.8 275.9
07/05 01:00 6.5 89 6.68 4.8 9 32 1007.5 8 15.8 24.6 35.2 92.2 80.8 275.8
07/05 00:50 6.6 92 6.95 5.4 11 28 1007.2 8 16.4 25.0 36.3 95.0 84.3 288.2
07/05 00:40 6.7 94 7.15 5.8 7 17 1007.2 7.8 16.8 25.3 37.0 97.1 86.9 297.4
07/05 00:30 6.5 92 6.9 5.3 22 46 1007.3 7.8 16.3 25.0 36.1 94.6 83.7 286.2
07/05 00:20 6.9 93 7.16 5.8 17 26 1006.8 7.8 16.8 25.3 37.0 97.0 86.8 297.1
07/05 00:10 6.9 93 7.16 5.8 17 28 1006.7 7.8 16.8 25.3 37.0 96.9 86.8 297.0
07/05 00:00 6.9 91 7.01 5.5 13 37 1006.7 7.8 16.5 25.0 36.4 95.3 84.8 289.9
06/05 23:50 6.7 89 6.77 5.1 13 24 1006.6 7.8 16.0 24.7 35.5 92.9 81.7 279.2
06/05 23:40 6.9 87 6.7 4.9 20 33 1006.6 7.8 15.8 24.5 35.1 91.9 80.6 275.1
06/05 23:30 6.8 86 6.58 4.6 17 37 1006.6 7.8 15.6 24.3 34.6 90.7 79.0 269.9
06/05 23:20 6.9 87 6.7 4.9 20 37 1006.7 7.8 15.8 24.5 35.1 91.9 80.6 275.2
06/05 23:10 6.8 88 6.73 4.9 13 22 1006.7 7.8 15.9 24.6 35.2 92.3 81.1 276.9
06/05 23:00 6.7 90 6.84 5.2 17 41 1006.8 7.6 16.1 24.8 35.7 93.7 82.7 282.5
06/05 22:50 6.7 93 7.07 5.6 28 43 1006.7 7.4 16.6 25.2 36.7 96.2 85.8 293.5
06/05 22:40 6.9 94 7.24 6 24 39 1006.8 7.4 17.0 25.4 37.3 97.8 87.9 300.9
06/05 22:30 6.6 93 7.02 5.6 30 54 1007 7.2 16.5 25.1 36.5 95.8 85.2 291.5
06/05 22:20 7.7 83 6.73 5.1 6 17 1007.2 6.8 15.8 24.4 34.9 91.3 80.2 273.9
06/05 22:10 7.8 85 6.94 5.4 15 32 1006.9 6.8 16.3 24.7 35.7 93.5 82.8 283.3
06/05 22:00 7.7 83 6.73 5 11 35 1006.9 6.8 15.8 24.3 34.9 91.3 80.1 273.8

Last Refresh: 07-May-2026 14:11:15

Bureau of Meteorology